createdAt,value
2023-04-02T00:01:07.650Z,9.40
2023-04-02T00:04:14.819Z,9.40
2023-04-02T00:06:52.432Z,9.40
2023-04-02T00:09:33.342Z,9.40
2023-04-02T00:12:18.726Z,9.30
2023-04-02T00:14:56.151Z,9.40
2023-04-02T00:17:28.308Z,9.30
2023-04-02T00:20:01.433Z,9.30
2023-04-02T00:22:37.265Z,9.30
2023-04-02T00:25:15.099Z,9.30
2023-04-02T00:28:04.638Z,9.30
2023-04-02T00:30:33.091Z,9.30
2023-04-02T00:33:02.227Z,9.30
2023-04-02T00:35:32.049Z,9.30
2023-04-02T00:38:03.315Z,9.30
2023-04-02T00:40:43.976Z,9.30
2023-04-02T00:43:17.588Z,9.30
2023-04-02T00:45:51.245Z,9.30
2023-04-02T00:48:27.974Z,9.30
2023-04-02T00:50:57.989Z,9.30
2023-04-02T00:53:33.936Z,9.30
2023-04-02T00:56:16.939Z,9.30
2023-04-02T00:58:52.459Z,9.40
2023-04-02T01:01:24.379Z,9.40
2023-04-02T01:04:01.327Z,9.40
2023-04-02T01:06:33.580Z,9.40
2023-04-02T01:09:23.261Z,9.40
2023-04-02T01:12:25.159Z,9.40
2023-04-02T01:15:05.112Z,9.30
2023-04-02T01:17:49.739Z,9.30
2023-04-02T01:20:55.912Z,9.30
2023-04-02T01:23:36.154Z,9.30
2023-04-02T01:26:16.507Z,9.40
2023-04-02T01:29:07.943Z,9.40
2023-04-02T01:31:37.125Z,9.30
2023-04-02T01:34:08.453Z,9.30
2023-04-02T01:36:50.422Z,9.30
2023-04-02T01:39:31.650Z,9.30
2023-04-02T01:42:11.763Z,9.30
2023-04-02T01:44:54.934Z,9.40
2023-04-02T01:47:27.537Z,9.30
2023-04-02T01:49:59.144Z,9.30
2023-04-02T01:52:38.004Z,9.40
2023-04-02T01:55:08.118Z,9.40
2023-04-02T01:57:39.230Z,9.40
2023-04-02T02:00:19.642Z,9.40
2023-04-02T02:03:00.978Z,9.40
2023-04-02T02:05:36.060Z,9.40
2023-04-02T02:08:09.929Z,9.40
2023-04-02T02:10:43.664Z,9.40
2023-04-02T02:13:23.584Z,9.50
2023-04-02T02:15:53.738Z,9.50
2023-04-02T02:18:24.560Z,9.40
2023-04-02T02:20:53.531Z,9.40
2023-04-02T02:23:26.958Z,9.50
2023-04-02T02:26:00.956Z,9.40
2023-04-02T02:28:31.069Z,9.40
2023-04-02T02:31:08.040Z,9.40
2023-04-02T02:33:42.755Z,9.40
2023-04-02T02:36:19.652Z,9.40
2023-04-02T02:38:54.973Z,9.40
2023-04-02T02:41:29.905Z,9.40
2023-04-02T02:44:03.516Z,9.40
2023-04-02T02:46:48.963Z,9.40
2023-04-02T02:49:39.395Z,9.40
2023-04-02T02:52:18.477Z,9.40
2023-04-02T02:54:51.237Z,9.40
2023-04-02T02:57:24.524Z,9.40
2023-04-02T02:59:57.358Z,9.40
2023-04-02T03:02:29.463Z,9.40
2023-04-02T03:04:59.467Z,9.40
2023-04-02T03:07:30.470Z,9.40
2023-04-02T03:10:06.089Z,9.30
2023-04-02T03:12:43.727Z,9.40
2023-04-02T03:15:21.144Z,9.30
2023-04-02T03:17:55.245Z,9.30
2023-04-02T03:20:27.493Z,9.30
2023-04-02T03:23:17.060Z,9.20
2023-04-02T03:25:56.881Z,9.30
2023-04-02T03:28:29.297Z,9.30
2023-04-02T03:31:06.479Z,9.30
2023-04-02T03:33:41.567Z,9.30
2023-04-02T03:36:24.073Z,9.30
2023-04-02T03:38:57.372Z,9.30
2023-04-02T03:41:34.460Z,9.30
2023-04-02T03:44:16.709Z,9.30
2023-04-02T03:46:51.342Z,9.30
2023-04-02T03:49:32.697Z,9.30
2023-04-02T03:52:09.540Z,9.30
2023-04-02T03:54:38.803Z,9.30
2023-04-02T03:57:13.631Z,9.30
2023-04-02T03:59:51.561Z,9.30
2023-04-02T04:02:34.707Z,9.30
2023-04-02T04:05:11.199Z,9.30
2023-04-02T04:07:43.121Z,9.30
2023-04-02T04:10:30.126Z,9.30
2023-04-02T04:13:13.466Z,9.30
2023-04-02T04:15:53.031Z,9.30
2023-04-02T04:18:34.827Z,9.30
2023-04-02T04:21:07.895Z,9.30
2023-04-02T04:23:39.123Z,9.30
2023-04-02T04:26:19.929Z,9.40
2023-04-02T04:29:00.146Z,9.40
2023-04-02T04:31:39.156Z,9.40
2023-04-02T04:34:13.040Z,9.30
2023-04-02T04:36:48.149Z,9.40
2023-04-02T04:39:24.757Z,9.40
2023-04-02T04:42:08.304Z,9.40
2023-04-02T04:44:55.168Z,9.40
2023-04-02T04:47:31.172Z,9.40
2023-04-02T04:50:05.504Z,9.40
2023-04-02T04:52:40.182Z,9.40
2023-04-02T04:55:29.130Z,9.40
2023-04-02T04:58:08.948Z,9.40
2023-04-02T05:00:46.576Z,9.40
2023-04-02T05:03:31.396Z,9.40
2023-04-02T05:06:16.327Z,9.40
2023-04-02T05:08:52.057Z,9.40
2023-04-02T05:11:29.668Z,9.40
2023-04-02T05:14:07.395Z,9.40
2023-04-02T05:16:44.938Z,9.40
2023-04-02T05:19:39.140Z,9.40
2023-04-02T05:22:20.815Z,9.40
2023-04-02T05:25:01.865Z,9.40
2023-04-02T05:27:37.779Z,9.40
2023-04-02T05:30:14.968Z,9.40
2023-04-02T05:32:48.971Z,9.40
2023-04-02T05:35:25.004Z,9.40
2023-04-02T05:37:56.792Z,9.40
2023-04-02T05:40:34.177Z,9.40
2023-04-02T05:43:09.328Z,9.40
2023-04-02T05:45:46.875Z,9.40
2023-04-02T05:48:37.302Z,9.40
2023-04-02T05:51:28.204Z,9.40
2023-04-02T05:54:14.750Z,9.40
2023-04-02T05:57:02.740Z,9.40
2023-04-02T05:59:40.408Z,9.40
2023-04-02T06:02:28.023Z,9.40
2023-04-02T06:05:32.204Z,9.40
2023-04-02T06:08:06.957Z,9.30
2023-04-02T06:10:50.664Z,9.30
2023-04-02T06:13:29.547Z,9.40
2023-04-02T06:16:16.577Z,9.40
2023-04-02T06:18:56.497Z,9.40
2023-04-02T06:22:06.417Z,9.40
2023-04-02T06:25:05.471Z,9.30
2023-04-02T06:30:59.366Z,9.00
2023-04-02T06:36:30.655Z,8.90
2023-04-02T06:39:42.614Z,8.70
2023-04-02T06:42:17.063Z,8.40
2023-04-02T06:44:49.733Z,8.30
2023-04-02T06:47:36.584Z,8.20
2023-04-02T06:50:09.863Z,8.10
2023-04-02T06:52:45.493Z,8.10
2023-04-02T06:55:31.679Z,8.00
2023-04-02T06:58:00.095Z,8.00
2023-04-02T07:00:39.915Z,7.90
2023-04-02T07:03:16.349Z,7.90
2023-04-02T07:05:52.810Z,7.90
2023-04-02T07:08:25.877Z,7.80
2023-04-02T07:11:09.923Z,7.90
2023-04-02T07:13:40.634Z,7.80
2023-04-02T07:16:15.863Z,7.90
2023-04-02T07:19:09.235Z,7.90
2023-04-02T07:21:47.407Z,7.90
2023-04-02T07:24:34.499Z,7.90
2023-04-02T07:27:28.399Z,7.90
2023-04-02T07:29:59.117Z,7.70
2023-04-02T07:32:55.014Z,7.70
2023-04-02T07:35:40.830Z,7.60
2023-04-02T07:38:25.322Z,7.60
2023-04-02T07:40:57.050Z,7.60
2023-04-02T07:43:32.177Z,7.60
2023-04-02T07:46:02.433Z,7.70
2023-04-02T07:48:39.304Z,7.70
2023-04-02T07:51:24.199Z,7.80
2023-04-02T07:53:56.504Z,7.80
2023-04-02T07:56:26.706Z,7.90
2023-04-02T07:58:55.022Z,7.90
2023-04-02T08:01:25.980Z,8.00
2023-04-02T08:03:55.783Z,8.00
2023-04-02T08:06:38.704Z,7.90
2023-04-02T08:09:10.012Z,7.90
2023-04-02T08:11:43.152Z,7.90
2023-04-02T08:14:14.994Z,7.90
2023-04-02T08:16:56.264Z,7.90
2023-04-02T08:19:24.802Z,7.80
2023-04-02T08:21:56.516Z,7.70
2023-04-02T08:24:27.892Z,7.70
2023-04-02T08:26:58.801Z,7.60
2023-04-02T08:29:29.770Z,7.50
2023-04-02T08:31:58.442Z,7.50
2023-04-02T08:34:29.189Z,7.60
2023-04-02T08:37:00.292Z,7.60
2023-04-02T08:39:33.325Z,7.50
2023-04-02T08:42:18.920Z,7.50
2023-04-02T08:47:52.121Z,7.40
2023-04-02T08:50:38.182Z,7.50
2023-04-02T08:53:34.038Z,7.50
2023-04-02T08:56:17.910Z,7.50
2023-04-02T08:58:56.836Z,7.40
2023-04-02T09:01:39.646Z,7.40
2023-04-02T09:04:18.962Z,7.40
2023-04-02T09:06:49.088Z,7.40
2023-04-02T09:09:20.317Z,7.40
2023-04-02T09:11:55.171Z,7.30
2023-04-02T09:14:36.676Z,7.40
2023-04-02T09:17:14.824Z,7.30
2023-04-02T09:19:51.840Z,7.40
2023-04-02T09:22:26.655Z,7.50
2023-04-02T09:25:30.479Z,7.40
2023-04-02T09:31:37.174Z,7.40
2023-04-02T09:34:55.239Z,7.50
2023-04-02T09:38:04.206Z,7.50
2023-04-02T09:40:54.046Z,7.50
2023-04-02T09:46:53.983Z,7.40
2023-04-02T09:49:59.674Z,7.40
2023-04-02T09:52:33.742Z,7.40
2023-04-02T09:55:29.187Z,7.50
2023-04-02T09:58:16.906Z,7.40
2023-04-02T10:01:10.516Z,7.30
2023-04-02T10:04:15.053Z,7.30
2023-04-02T10:07:11.326Z,7.30
2023-04-02T10:09:45.219Z,7.40
2023-04-02T10:12:19.536Z,7.40
2023-04-02T10:15:01.975Z,7.40
2023-04-02T10:17:36.948Z,7.40
2023-04-02T10:20:17.588Z,7.40
2023-04-02T10:22:57.618Z,7.30
2023-04-02T10:25:40.277Z,7.20
2023-04-02T10:28:21.384Z,7.20
2023-04-02T10:31:09.601Z,7.30
2023-04-02T10:33:50.686Z,7.40
2023-04-02T10:36:52.604Z,7.50
2023-04-02T10:39:46.860Z,7.60
2023-04-02T10:42:56.507Z,7.60
2023-04-02T10:46:02.172Z,7.60
2023-04-02T10:49:18.658Z,7.50
2023-04-02T10:52:34.560Z,7.50
2023-04-02T10:55:40.793Z,7.50
2023-04-02T10:58:28.871Z,7.40
2023-04-02T11:01:23.067Z,7.30
2023-04-02T11:03:59.013Z,7.30
2023-04-02T11:06:31.514Z,7.40
2023-04-02T11:09:15.254Z,7.60
2023-04-02T11:12:09.224Z,7.60
2023-04-02T11:14:49.594Z,7.70
2023-04-02T11:17:25.261Z,7.70
2023-04-02T11:20:25.894Z,7.70
2023-04-02T11:23:22.034Z,7.80
2023-04-02T11:26:00.953Z,7.90
2023-04-02T11:28:41.496Z,7.90
2023-04-02T11:31:33.356Z,8.00
2023-04-02T11:34:08.710Z,8.10
2023-04-02T11:37:21.028Z,8.00
2023-04-02T11:40:03.693Z,8.00
2023-04-02T11:42:45.448Z,7.90
2023-04-02T11:46:07.254Z,7.90
2023-04-02T11:48:41.019Z,8.00
2023-04-02T11:51:20.008Z,7.90
2023-04-02T11:54:09.267Z,7.90
2023-04-02T11:56:53.679Z,7.90
2023-04-02T11:59:29.804Z,7.90
2023-04-02T12:02:35.072Z,7.90
2023-04-02T12:09:43.704Z,7.90
2023-04-02T12:12:44.941Z,7.80
2023-04-02T12:19:11.021Z,7.90
2023-04-02T12:21:54.589Z,7.90
2023-04-02T12:24:37.432Z,7.90
2023-04-02T12:27:21.561Z,8.10
2023-04-02T12:30:13.540Z,8.10
2023-04-02T12:33:10.337Z,8.00
2023-04-02T12:39:24.612Z,7.80
2023-04-02T12:49:16.523Z,8.00
2023-04-02T12:52:20.564Z,8.00
2023-04-02T12:58:05.491Z,7.80
2023-04-02T13:01:37.010Z,7.80
2023-04-02T13:04:29.431Z,7.70
2023-04-02T13:07:36.265Z,7.70
2023-04-02T13:13:53.835Z,7.70
2023-04-02T13:17:19.767Z,7.70
2023-04-02T13:23:13.798Z,7.60
2023-04-02T13:29:37.766Z,7.60
2023-04-02T13:32:49.544Z,7.60
2023-04-02T13:35:57.685Z,7.70
2023-04-02T13:38:47.073Z,7.60
2023-04-02T13:44:47.570Z,7.60
2023-04-02T13:47:55.354Z,7.60
2023-04-02T13:50:47.338Z,7.50
2023-04-02T13:53:49.979Z,7.40
2023-04-02T13:56:52.044Z,7.40
2023-04-02T14:00:10.080Z,7.30
2023-04-02T14:03:14.012Z,7.30
2023-04-02T14:24:45.563Z,6.80
2023-04-02T14:35:41.472Z,6.80
2023-04-02T14:42:42.453Z,6.70
2023-04-02T14:53:28.563Z,6.70
2023-04-02T14:56:46.145Z,6.70
2023-04-02T15:14:24.877Z,6.40
2023-04-02T15:20:40.789Z,6.40
2023-04-02T15:24:08.959Z,6.40
2023-04-02T15:27:31.961Z,6.30
2023-04-02T15:34:02.134Z,6.30
2023-04-02T15:37:48.669Z,6.10
2023-04-02T15:47:00.394Z,5.80
2023-04-02T15:50:08.502Z,5.70
2023-04-02T15:56:40.410Z,5.60
2023-04-02T16:00:00.236Z,5.80
2023-04-02T16:10:41.892Z,5.60
2023-04-02T16:13:46.406Z,5.60
